sensor_id;sensor_type;location;lat;lon;timestamp;P1;durP1;ratioP1;P2;durP2;ratioP2
59520;SDS011;54898;40.918;14.476;2022-09-09T00:02:08;26.55;;;8.90;;
59520;SDS011;54898;40.918;14.476;2022-09-09T00:04:39;28.13;;;8.68;;
59520;SDS011;54898;40.918;14.476;2022-09-09T00:07:10;30.60;;;8.50;;
59520;SDS011;54898;40.918;14.476;2022-09-09T00:09:41;28.95;;;9.57;;
59520;SDS011;54898;40.918;14.476;2022-09-09T00:12:17;33.97;;;8.93;;
59520;SDS011;54898;40.918;14.476;2022-09-09T00:14:54;30.27;;;9.00;;
59520;SDS011;54898;40.918;14.476;2022-09-09T00:17:33;21.45;;;7.57;;
59520;SDS011;54898;40.918;14.476;2022-09-09T00:20:11;27.90;;;8.00;;
59520;SDS011;54898;40.918;14.476;2022-09-09T00:22:55;35.03;;;7.60;;
59520;SDS011;54898;40.918;14.476;2022-09-09T00:25:31;25.67;;;7.53;;
59520;SDS011;54898;40.918;14.476;2022-09-09T00:28:09;24.88;;;8.10;;
59520;SDS011;54898;40.918;14.476;2022-09-09T00:30:41;26.13;;;7.65;;
59520;SDS011;54898;40.918;14.476;2022-09-09T00:33:10;38.05;;;8.07;;
59520;SDS011;54898;40.918;14.476;2022-09-09T00:35:47;27.85;;;8.23;;
59520;SDS011;54898;40.918;14.476;2022-09-09T00:38:16;25.30;;;7.97;;
59520;SDS011;54898;40.918;14.476;2022-09-09T00:40:52;25.08;;;7.57;;
59520;SDS011;54898;40.918;14.476;2022-09-09T00:43:26;28.80;;;8.13;;
59520;SDS011;54898;40.918;14.476;2022-09-09T00:46:10;25.48;;;7.93;;
59520;SDS011;54898;40.918;14.476;2022-09-09T00:48:43;29.88;;;8.93;;
59520;SDS011;54898;40.918;14.476;2022-09-09T00:54:00;24.90;;;7.57;;
59520;SDS011;54898;40.918;14.476;2022-09-09T00:56:40;33.53;;;8.60;;
59520;SDS011;54898;40.918;14.476;2022-09-09T00:59:19;31.70;;;8.15;;
59520;SDS011;54898;40.918;14.476;2022-09-09T01:01:49;24.33;;;7.55;;
59520;SDS011;54898;40.918;14.476;2022-09-09T01:04:20;25.85;;;7.88;;
59520;SDS011;54898;40.918;14.476;2022-09-09T01:06:55;24.90;;;7.63;;
59520;SDS011;54898;40.918;14.476;2022-09-09T01:09:32;28.40;;;7.97;;
59520;SDS011;54898;40.918;14.476;2022-09-09T01:12:09;32.78;;;8.68;;
59520;SDS011;54898;40.918;14.476;2022-09-09T01:14:47;25.17;;;8.63;;
59520;SDS011;54898;40.918;14.476;2022-09-09T01:17:26;23.58;;;8.50;;
59520;SDS011;54898;40.918;14.476;2022-09-09T01:20:04;27.45;;;8.38;;
59520;SDS011;54898;40.918;14.476;2022-09-09T01:22:47;28.08;;;8.13;;
59520;SDS011;54898;40.918;14.476;2022-09-09T01:25:26;28.48;;;8.68;;
59520;SDS011;54898;40.918;14.476;2022-09-09T01:28:08;28.33;;;8.50;;
59520;SDS011;54898;40.918;14.476;2022-09-09T01:30:38;27.77;;;8.35;;
59520;SDS011;54898;40.918;14.476;2022-09-09T01:33:07;26.05;;;8.63;;
59520;SDS011;54898;40.918;14.476;2022-09-09T01:35:39;25.33;;;8.70;;
59520;SDS011;54898;40.918;14.476;2022-09-09T01:38:08;27.88;;;8.55;;
59520;SDS011;54898;40.918;14.476;2022-09-09T01:40:36;26.33;;;7.47;;
59520;SDS011;54898;40.918;14.476;2022-09-09T01:43:03;23.92;;;8.27;;
59520;SDS011;54898;40.918;14.476;2022-09-09T01:45:35;28.58;;;7.75;;
59520;SDS011;54898;40.918;14.476;2022-09-09T01:48:03;26.08;;;7.57;;
59520;SDS011;54898;40.918;14.476;2022-09-09T01:51:02;25.27;;;7.75;;
59520;SDS011;54898;40.918;14.476;2022-09-09T01:53:29;27.02;;;8.63;;
59520;SDS011;54898;40.918;14.476;2022-09-09T01:56:00;27.05;;;8.68;;
59520;SDS011;54898;40.918;14.476;2022-09-09T01:58:32;23.60;;;7.68;;
59520;SDS011;54898;40.918;14.476;2022-09-09T02:01:04;30.95;;;9.18;;
59520;SDS011;54898;40.918;14.476;2022-09-09T02:03:32;29.00;;;8.35;;
59520;SDS011;54898;40.918;14.476;2022-09-09T02:06:11;24.35;;;8.13;;
59520;SDS011;54898;40.918;14.476;2022-09-09T02:08:42;32.78;;;9.25;;
59520;SDS011;54898;40.918;14.476;2022-09-09T02:11:11;24.08;;;8.85;;
59520;SDS011;54898;40.918;14.476;2022-09-09T02:13:52;24.17;;;8.23;;
59520;SDS011;54898;40.918;14.476;2022-09-09T02:16:23;24.40;;;8.75;;
59520;SDS011;54898;40.918;14.476;2022-09-09T02:18:55;25.52;;;8.77;;
59520;SDS011;54898;40.918;14.476;2022-09-09T02:21:33;26.95;;;8.20;;
59520;SDS011;54898;40.918;14.476;2022-09-09T02:24:04;25.90;;;8.65;;
59520;SDS011;54898;40.918;14.476;2022-09-09T02:26:39;28.58;;;8.55;;
59520;SDS011;54898;40.918;14.476;2022-09-09T02:29:12;25.50;;;8.02;;
59520;SDS011;54898;40.918;14.476;2022-09-09T02:31:45;32.55;;;9.68;;
59520;SDS011;54898;40.918;14.476;2022-09-09T02:34:18;26.80;;;8.85;;
59520;SDS011;54898;40.918;14.476;2022-09-09T02:36:46;27.73;;;9.25;;
59520;SDS011;54898;40.918;14.476;2022-09-09T02:39:17;28.85;;;10.05;;
59520;SDS011;54898;40.918;14.476;2022-09-09T02:41:46;28.43;;;9.57;;
59520;SDS011;54898;40.918;14.476;2022-09-09T02:44:14;30.60;;;9.15;;
59520;SDS011;54898;40.918;14.476;2022-09-09T02:47:00;25.60;;;9.68;;
59520;SDS011;54898;40.918;14.476;2022-09-09T02:49:33;26.75;;;9.45;;
59520;SDS011;54898;40.918;14.476;2022-09-09T02:52:04;29.45;;;9.57;;
59520;SDS011;54898;40.918;14.476;2022-09-09T02:54:40;28.65;;;9.23;;
59520;SDS011;54898;40.918;14.476;2022-09-09T02:57:12;31.08;;;9.10;;
59520;SDS011;54898;40.918;14.476;2022-09-09T02:59:41;27.90;;;9.20;;
59520;SDS011;54898;40.918;14.476;2022-09-09T03:02:19;27.77;;;8.38;;
59520;SDS011;54898;40.918;14.476;2022-09-09T03:04:57;28.70;;;9.07;;
59520;SDS011;54898;40.918;14.476;2022-09-09T03:22:35;27.17;;;8.38;;
59520;SDS011;54898;40.918;14.476;2022-09-09T03:27:37;26.55;;;8.90;;
59520;SDS011;54898;40.918;14.476;2022-09-09T03:30:06;31.17;;;9.80;;
59520;SDS011;54898;40.918;14.476;2022-09-09T03:32:34;32.10;;;8.70;;
59520;SDS011;54898;40.918;14.476;2022-09-09T03:35:04;24.15;;;8.98;;
59520;SDS011;54898;40.918;14.476;2022-09-09T03:37:32;27.52;;;8.27;;
59520;SDS011;54898;40.918;14.476;2022-09-09T03:40:00;26.85;;;7.90;;
59520;SDS011;54898;40.918;14.476;2022-09-09T03:42:28;26.75;;;8.88;;
59520;SDS011;54898;40.918;14.476;2022-09-09T03:44:56;26.38;;;9.00;;
59520;SDS011;54898;40.918;14.476;2022-09-09T03:47:25;28.38;;;8.75;;
59520;SDS011;54898;40.918;14.476;2022-09-09T03:49:57;30.35;;;9.45;;
59520;SDS011;54898;40.918;14.476;2022-09-09T03:52:24;28.95;;;9.32;;
59520;SDS011;54898;40.918;14.476;2022-09-09T03:54:53;23.13;;;8.45;;
59520;SDS011;54898;40.918;14.476;2022-09-09T03:57:25;26.17;;;8.93;;
59520;SDS011;54898;40.918;14.476;2022-09-09T03:59:53;22.92;;;9.25;;
59520;SDS011;54898;40.918;14.476;2022-09-09T04:02:21;20.25;;;8.45;;
59520;SDS011;54898;40.918;14.476;2022-09-09T04:04:51;34.30;;;9.18;;
59520;SDS011;54898;40.918;14.476;2022-09-09T04:07:18;26.95;;;8.57;;
59520;SDS011;54898;40.918;14.476;2022-09-09T04:09:51;24.90;;;8.70;;
59520;SDS011;54898;40.918;14.476;2022-09-09T04:12:18;29.23;;;8.90;;
59520;SDS011;54898;40.918;14.476;2022-09-09T04:14:47;22.75;;;8.90;;
59520;SDS011;54898;40.918;14.476;2022-09-09T04:17:15;28.45;;;8.75;;
59520;SDS011;54898;40.918;14.476;2022-09-09T04:19:43;26.02;;;8.13;;
59520;SDS011;54898;40.918;14.476;2022-09-09T04:22:11;25.13;;;8.80;;
59520;SDS011;54898;40.918;14.476;2022-09-09T04:24:37;30.00;;;9.13;;
59520;SDS011;54898;40.918;14.476;2022-09-09T04:27:05;24.13;;;8.43;;
59520;SDS011;54898;40.918;14.476;2022-09-09T04:29:35;29.75;;;8.80;;
59520;SDS011;54898;40.918;14.476;2022-09-09T04:32:03;25.75;;;8.43;;
59520;SDS011;54898;40.918;14.476;2022-09-09T04:34:31;30.58;;;8.75;;
59520;SDS011;54898;40.918;14.476;2022-09-09T04:36:59;24.45;;;7.97;;
59520;SDS011;54898;40.918;14.476;2022-09-09T04:39:28;22.02;;;7.65;;
59520;SDS011;54898;40.918;14.476;2022-09-09T04:41:59;23.17;;;7.93;;
59520;SDS011;54898;40.918;14.476;2022-09-09T04:44:27;29.05;;;8.30;;
59520;SDS011;54898;40.918;14.476;2022-09-09T04:46:54;27.33;;;8.50;;
59520;SDS011;54898;40.918;14.476;2022-09-09T04:49:23;25.83;;;8.05;;
59520;SDS011;54898;40.918;14.476;2022-09-09T04:51:51;23.48;;;8.13;;
59520;SDS011;54898;40.918;14.476;2022-09-09T04:54:23;27.88;;;8.50;;
59520;SDS011;54898;40.918;14.476;2022-09-09T04:56:52;20.60;;;8.15;;
59520;SDS011;54898;40.918;14.476;2022-09-09T04:59:19;26.98;;;8.80;;
59520;SDS011;54898;40.918;14.476;2022-09-09T05:01:50;31.40;;;8.90;;
59520;SDS011;54898;40.918;14.476;2022-09-09T05:04:18;28.70;;;8.25;;
59520;SDS011;54898;40.918;14.476;2022-09-09T05:06:47;26.48;;;8.52;;
59520;SDS011;54898;40.918;14.476;2022-09-09T05:11:40;24.38;;;8.55;;
59520;SDS011;54898;40.918;14.476;2022-09-09T05:14:28;25.02;;;7.75;;
59520;SDS011;54898;40.918;14.476;2022-09-09T05:16:55;30.23;;;7.82;;
59520;SDS011;54898;40.918;14.476;2022-09-09T05:19:23;28.88;;;9.25;;
59520;SDS011;54898;40.918;14.476;2022-09-09T05:21:53;27.50;;;8.70;;
59520;SDS011;54898;40.918;14.476;2022-09-09T05:24:27;30.27;;;8.35;;
59520;SDS011;54898;40.918;14.476;2022-09-09T05:26:56;23.85;;;8.07;;
59520;SDS011;54898;40.918;14.476;2022-09-09T05:29:26;32.95;;;8.70;;
59520;SDS011;54898;40.918;14.476;2022-09-09T05:31:52;23.50;;;7.97;;
59520;SDS011;54898;40.918;14.476;2022-09-09T05:34:21;29.50;;;7.90;;
59520;SDS011;54898;40.918;14.476;2022-09-09T05:36:49;32.08;;;8.68;;
59520;SDS011;54898;40.918;14.476;2022-09-09T05:39:18;26.83;;;8.43;;
59520;SDS011;54898;40.918;14.476;2022-09-09T05:41:45;25.33;;;8.50;;
59520;SDS011;54898;40.918;14.476;2022-09-09T05:44:12;26.92;;;8.75;;
59520;SDS011;54898;40.918;14.476;2022-09-09T05:46:39;26.88;;;8.15;;
59520;SDS011;54898;40.918;14.476;2022-09-09T05:49:06;23.80;;;7.38;;
59520;SDS011;54898;40.918;14.476;2022-09-09T05:51:35;24.67;;;7.68;;
59520;SDS011;54898;40.918;14.476;2022-09-09T05:54:07;24.75;;;7.65;;
59520;SDS011;54898;40.918;14.476;2022-09-09T05:56:39;29.05;;;7.57;;
59520;SDS011;54898;40.918;14.476;2022-09-09T05:59:07;29.52;;;8.63;;
59520;SDS011;54898;40.918;14.476;2022-09-09T06:01:34;32.53;;;9.15;;
59520;SDS011;54898;40.918;14.476;2022-09-09T06:04:02;27.30;;;8.63;;
59520;SDS011;54898;40.918;14.476;2022-09-09T06:06:30;25.90;;;7.70;;
59520;SDS011;54898;40.918;14.476;2022-09-09T06:08:59;172.13;;;10.60;;
59520;SDS011;54898;40.918;14.476;2022-09-09T06:11:31;25.25;;;3.03;;
59520;SDS011;54898;40.918;14.476;2022-09-09T06:14:00;16.85;;;2.70;;
59520;SDS011;54898;40.918;14.476;2022-09-09T06:18:54;29.55;;;6.43;;
59520;SDS011;54898;40.918;14.476;2022-09-09T06:21:24;35.22;;;9.10;;
59520;SDS011;54898;40.918;14.476;2022-09-09T06:23:50;43.00;;;10.02;;
59520;SDS011;54898;40.918;14.476;2022-09-09T06:26:22;27.67;;;8.40;;
59520;SDS011;54898;40.918;14.476;2022-09-09T06:28:51;35.80;;;8.00;;
59520;SDS011;54898;40.918;14.476;2022-09-09T06:31:21;30.00;;;7.20;;
59520;SDS011;54898;40.918;14.476;2022-09-09T06:33:52;27.70;;;7.47;;
59520;SDS011;54898;40.918;14.476;2022-09-09T06:36:20;21.67;;;6.65;;
59520;SDS011;54898;40.918;14.476;2022-09-09T06:38:47;22.83;;;6.90;;
59520;SDS011;54898;40.918;14.476;2022-09-09T06:41:14;23.00;;;6.38;;
59520;SDS011;54898;40.918;14.476;2022-09-09T06:43:43;23.48;;;5.97;;
59520;SDS011;54898;40.918;14.476;2022-09-09T06:46:12;13.70;;;4.45;;
59520;SDS011;54898;40.918;14.476;2022-09-09T06:48:41;11.93;;;4.40;;
59520;SDS011;54898;40.918;14.476;2022-09-09T06:51:10;11.57;;;3.60;;
59520;SDS011;54898;40.918;14.476;2022-09-09T06:53:41;12.00;;;4.13;;
59520;SDS011;54898;40.918;14.476;2022-09-09T06:56:17;15.05;;;4.10;;
59520;SDS011;54898;40.918;14.476;2022-09-09T06:58:44;14.27;;;4.00;;
59520;SDS011;54898;40.918;14.476;2022-09-09T07:01:17;13.30;;;3.55;;
59520;SDS011;54898;40.918;14.476;2022-09-09T07:03:47;12.75;;;3.95;;
59520;SDS011;54898;40.918;14.476;2022-09-09T07:06:14;16.60;;;4.85;;
59520;SDS011;54898;40.918;14.476;2022-09-09T07:08:41;16.90;;;5.72;;
59520;SDS011;54898;40.918;14.476;2022-09-09T07:11:08;14.50;;;4.88;;
59520;SDS011;54898;40.918;14.476;2022-09-09T07:13:36;13.90;;;5.03;;
59520;SDS011;54898;40.918;14.476;2022-09-09T07:16:04;11.15;;;4.07;;
59520;SDS011;54898;40.918;14.476;2022-09-09T07:18:31;9.43;;;3.85;;
59520;SDS011;54898;40.918;14.476;2022-09-09T07:21:01;12.10;;;4.25;;
59520;SDS011;54898;40.918;14.476;2022-09-09T07:23:28;9.93;;;3.70;;
59520;SDS011;54898;40.918;14.476;2022-09-09T07:25:56;6.13;;;2.70;;
59520;SDS011;54898;40.918;14.476;2022-09-09T07:28:22;10.25;;;3.13;;
59520;SDS011;54898;40.918;14.476;2022-09-09T07:30:56;10.48;;;2.95;;
59520;SDS011;54898;40.918;14.476;2022-09-09T07:33:23;8.38;;;2.47;;
59520;SDS011;54898;40.918;14.476;2022-09-09T07:35:50;9.68;;;3.00;;
59520;SDS011;54898;40.918;14.476;2022-09-09T07:38:20;6.15;;;2.75;;
59520;SDS011;54898;40.918;14.476;2022-09-09T07:40:48;12.35;;;3.10;;
59520;SDS011;54898;40.918;14.476;2022-09-09T07:43:14;7.20;;;2.80;;
59520;SDS011;54898;40.918;14.476;2022-09-09T07:45:43;9.18;;;3.25;;
59520;SDS011;54898;40.918;14.476;2022-09-09T07:48:10;12.77;;;3.20;;
59520;SDS011;54898;40.918;14.476;2022-09-09T07:50:37;9.35;;;3.50;;
59520;SDS011;54898;40.918;14.476;2022-09-09T07:53:04;10.25;;;3.08;;
59520;SDS011;54898;40.918;14.476;2022-09-09T07:55:34;8.88;;;3.08;;
59520;SDS011;54898;40.918;14.476;2022-09-09T07:58:00;8.15;;;3.22;;
59520;SDS011;54898;40.918;14.476;2022-09-09T08:00:26;8.88;;;3.05;;
59520;SDS011;54898;40.918;14.476;2022-09-09T08:02:57;10.32;;;3.28;;
59520;SDS011;54898;40.918;14.476;2022-09-09T08:05:23;7.05;;;3.30;;
59520;SDS011;54898;40.918;14.476;2022-09-09T08:07:50;10.57;;;3.50;;
59520;SDS011;54898;40.918;14.476;2022-09-09T08:10:17;5.68;;;3.03;;
59520;SDS011;54898;40.918;14.476;2022-09-09T08:15:13;8.93;;;2.97;;
59520;SDS011;54898;40.918;14.476;2022-09-09T08:17:40;12.00;;;3.80;;
59520;SDS011;54898;40.918;14.476;2022-09-09T08:20:08;11.55;;;3.40;;
59520;SDS011;54898;40.918;14.476;2022-09-09T08:22:35;6.63;;;2.60;;
59520;SDS011;54898;40.918;14.476;2022-09-09T08:25:04;6.28;;;2.65;;
59520;SDS011;54898;40.918;14.476;2022-09-09T08:27:33;6.22;;;3.15;;
59520;SDS011;54898;40.918;14.476;2022-09-09T08:30:00;5.68;;;2.90;;
59520;SDS011;54898;40.918;14.476;2022-09-09T08:32:30;5.07;;;2.80;;
59520;SDS011;54898;40.918;14.476;2022-09-09T08:34:58;5.55;;;2.95;;
59520;SDS011;54898;40.918;14.476;2022-09-09T08:37:25;5.90;;;2.67;;
59520;SDS011;54898;40.918;14.476;2022-09-09T08:39:51;10.25;;;3.28;;
59520;SDS011;54898;40.918;14.476;2022-09-09T08:42:27;11.77;;;2.80;;
59520;SDS011;54898;40.918;14.476;2022-09-09T08:45:05;6.63;;;3.23;;
59520;SDS011;54898;40.918;14.476;2022-09-09T08:47:42;6.70;;;3.50;;
59520;SDS011;54898;40.918;14.476;2022-09-09T08:50:16;7.20;;;3.35;;
59520;SDS011;54898;40.918;14.476;2022-09-09T08:55:20;4.82;;;2.70;;
59520;SDS011;54898;40.918;14.476;2022-09-09T08:57:49;7.13;;;2.75;;
59520;SDS011;54898;40.918;14.476;2022-09-09T09:00:17;6.57;;;3.15;;
59520;SDS011;54898;40.918;14.476;2022-09-09T09:02:47;6.32;;;2.70;;
59520;SDS011;54898;40.918;14.476;2022-09-09T09:05:18;6.47;;;3.38;;
59520;SDS011;54898;40.918;14.476;2022-09-09T09:07:49;4.65;;;3.17;;
59520;SDS011;54898;40.918;14.476;2022-09-09T09:10:28;7.72;;;3.78;;
59520;SDS011;54898;40.918;14.476;2022-09-09T09:12:59;7.13;;;3.10;;
59520;SDS011;54898;40.918;14.476;2022-09-09T09:15:30;6.10;;;3.50;;
59520;SDS011;54898;40.918;14.476;2022-09-09T09:17:59;4.20;;;2.67;;
59520;SDS011;54898;40.918;14.476;2022-09-09T09:20:27;5.20;;;3.13;;
59520;SDS011;54898;40.918;14.476;2022-09-09T09:22:56;7.10;;;3.40;;
59520;SDS011;54898;40.918;14.476;2022-09-09T09:25:27;6.90;;;3.20;;
59520;SDS011;54898;40.918;14.476;2022-09-09T09:28:02;6.55;;;3.35;;
59520;SDS011;54898;40.918;14.476;2022-09-09T09:30:34;5.82;;;3.53;;
59520;SDS011;54898;40.918;14.476;2022-09-09T09:33:08;7.20;;;3.63;;
59520;SDS011;54898;40.918;14.476;2022-09-09T09:35:39;5.60;;;3.65;;
59520;SDS011;54898;40.918;14.476;2022-09-09T09:38:08;7.53;;;3.83;;
59520;SDS011;54898;40.918;14.476;2022-09-09T09:40:47;7.80;;;3.80;;
59520;SDS011;54898;40.918;14.476;2022-09-09T09:43:17;9.00;;;3.67;;
59520;SDS011;54898;40.918;14.476;2022-09-09T09:45:44;9.82;;;3.90;;
59520;SDS011;54898;40.918;14.476;2022-09-09T09:48:13;6.97;;;3.38;;
59520;SDS011;54898;40.918;14.476;2022-09-09T09:50:46;7.93;;;3.83;;
59520;SDS011;54898;40.918;14.476;2022-09-09T09:53:17;9.30;;;4.03;;
59520;SDS011;54898;40.918;14.476;2022-09-09T09:55:46;8.77;;;4.20;;
59520;SDS011;54898;40.918;14.476;2022-09-09T09:58:15;8.65;;;3.67;;
59520;SDS011;54898;40.918;14.476;2022-09-09T10:03:14;8.60;;;3.47;;
59520;SDS011;54898;40.918;14.476;2022-09-09T10:05:45;10.47;;;3.80;;
59520;SDS011;54898;40.918;14.476;2022-09-09T10:08:13;9.80;;;3.45;;
59520;SDS011;54898;40.918;14.476;2022-09-09T10:10:44;10.07;;;3.78;;
59520;SDS011;54898;40.918;14.476;2022-09-09T10:13:15;14.10;;;3.78;;
59520;SDS011;54898;40.918;14.476;2022-09-09T10:15:46;10.45;;;3.53;;
59520;SDS011;54898;40.918;14.476;2022-09-09T10:18:22;9.55;;;3.58;;
59520;SDS011;54898;40.918;14.476;2022-09-09T10:20:52;13.35;;;3.72;;
59520;SDS011;54898;40.918;14.476;2022-09-09T10:23:27;9.40;;;3.40;;
59520;SDS011;54898;40.918;14.476;2022-09-09T10:26:01;11.70;;;3.72;;
59520;SDS011;54898;40.918;14.476;2022-09-09T10:28:33;9.05;;;3.78;;
59520;SDS011;54898;40.918;14.476;2022-09-09T10:31:08;12.90;;;4.30;;
59520;SDS011;54898;40.918;14.476;2022-09-09T10:33:42;10.88;;;3.92;;
59520;SDS011;54898;40.918;14.476;2022-09-09T10:36:12;9.93;;;3.47;;
59520;SDS011;54898;40.918;14.476;2022-09-09T10:38:40;13.43;;;3.63;;
59520;SDS011;54898;40.918;14.476;2022-09-09T10:43:38;14.50;;;4.30;;
59520;SDS011;54898;40.918;14.476;2022-09-09T10:46:07;14.32;;;3.40;;
59520;SDS011;54898;40.918;14.476;2022-09-09T10:48:38;11.00;;;3.53;;
59520;SDS011;54898;40.918;14.476;2022-09-09T10:51:21;9.35;;;3.33;;
59520;SDS011;54898;40.918;14.476;2022-09-09T10:54:01;12.80;;;4.20;;
59520;SDS011;54898;40.918;14.476;2022-09-09T10:56:31;16.48;;;4.15;;
59520;SDS011;54898;40.918;14.476;2022-09-09T10:58:58;19.30;;;4.47;;
59520;SDS011;54898;40.918;14.476;2022-09-09T11:01:27;16.35;;;4.53;;
59520;SDS011;54898;40.918;14.476;2022-09-09T11:03:57;16.67;;;5.10;;
59520;SDS011;54898;40.918;14.476;2022-09-09T11:06:28;17.52;;;4.80;;
59520;SDS011;54898;40.918;14.476;2022-09-09T11:08:56;19.65;;;5.53;;
59520;SDS011;54898;40.918;14.476;2022-09-09T11:11:25;24.43;;;5.17;;
59520;SDS011;54898;40.918;14.476;2022-09-09T11:13:55;19.80;;;5.30;;
59520;SDS011;54898;40.918;14.476;2022-09-09T11:16:24;17.35;;;5.13;;
59520;SDS011;54898;40.918;14.476;2022-09-09T11:18:51;22.08;;;5.25;;
59520;SDS011;54898;40.918;14.476;2022-09-09T11:21:23;33.20;;;11.90;;
59520;SDS011;54898;40.918;14.476;2022-09-09T11:23:52;46.20;;;16.77;;
59520;SDS011;54898;40.918;14.476;2022-09-09T11:26:33;36.67;;;16.88;;
59520;SDS011;54898;40.918;14.476;2022-09-09T11:29:08;24.98;;;6.45;;
59520;SDS011;54898;40.918;14.476;2022-09-09T11:31:43;29.42;;;6.72;;
59520;SDS011;54898;40.918;14.476;2022-09-09T11:34:24;23.58;;;7.22;;
59520;SDS011;54898;40.918;14.476;2022-09-09T11:37:08;38.70;;;7.68;;
59520;SDS011;54898;40.918;14.476;2022-09-09T11:39:47;27.08;;;5.88;;
59520;SDS011;54898;40.918;14.476;2022-09-09T11:42:18;20.05;;;5.78;;
59520;SDS011;54898;40.918;14.476;2022-09-09T11:44:46;31.05;;;7.00;;
59520;SDS011;54898;40.918;14.476;2022-09-09T11:47:16;29.95;;;6.13;;
59520;SDS011;54898;40.918;14.476;2022-09-09T11:49:45;27.88;;;6.18;;
59520;SDS011;54898;40.918;14.476;2022-09-09T11:52:11;25.35;;;6.53;;
59520;SDS011;54898;40.918;14.476;2022-09-09T11:54:46;27.73;;;6.15;;
59520;SDS011;54898;40.918;14.476;2022-09-09T11:57:16;36.55;;;7.10;;
59520;SDS011;54898;40.918;14.476;2022-09-09T11:59:50;26.35;;;6.80;;
59520;SDS011;54898;40.918;14.476;2022-09-09T12:02:19;26.58;;;6.40;;
59520;SDS011;54898;40.918;14.476;2022-09-09T12:04:48;25.48;;;6.60;;
59520;SDS011;54898;40.918;14.476;2022-09-09T12:07:23;32.00;;;7.50;;
59520;SDS011;54898;40.918;14.476;2022-09-09T12:09:52;29.23;;;6.60;;
59520;SDS011;54898;40.918;14.476;2022-09-09T12:12:24;27.48;;;6.55;;
59520;SDS011;54898;40.918;14.476;2022-09-09T12:14:58;30.13;;;6.53;;
59520;SDS011;54898;40.918;14.476;2022-09-09T12:17:26;30.70;;;7.13;;
59520;SDS011;54898;40.918;14.476;2022-09-09T12:19:59;23.77;;;6.38;;
59520;SDS011;54898;40.918;14.476;2022-09-09T12:22:33;32.47;;;8.30;;
59520;SDS011;54898;40.918;14.476;2022-09-09T12:25:03;29.58;;;6.88;;
59520;SDS011;54898;40.918;14.476;2022-09-09T12:27:35;30.27;;;7.22;;
59520;SDS011;54898;40.918;14.476;2022-09-09T12:30:07;31.23;;;7.57;;
59520;SDS011;54898;40.918;14.476;2022-09-09T12:32:35;30.90;;;7.60;;
59520;SDS011;54898;40.918;14.476;2022-09-09T12:35:02;30.95;;;7.07;;
59520;SDS011;54898;40.918;14.476;2022-09-09T12:37:37;32.10;;;7.07;;
59520;SDS011;54898;40.918;14.476;2022-09-09T12:40:14;28.08;;;8.00;;
59520;SDS011;54898;40.918;14.476;2022-09-09T12:42:44;31.08;;;7.45;;
59520;SDS011;54898;40.918;14.476;2022-09-09T12:45:15;32.75;;;7.60;;
59520;SDS011;54898;40.918;14.476;2022-09-09T12:47:44;31.90;;;8.10;;
59520;SDS011;54898;40.918;14.476;2022-09-09T12:50:15;32.83;;;7.55;;
59520;SDS011;54898;40.918;14.476;2022-09-09T12:52:42;36.92;;;7.78;;
59520;SDS011;54898;40.918;14.476;2022-09-09T12:55:16;27.80;;;7.53;;
59520;SDS011;54898;40.918;14.476;2022-09-09T12:57:44;35.17;;;7.93;;
59520;SDS011;54898;40.918;14.476;2022-09-09T13:00:14;37.97;;;7.95;;
59520;SDS011;54898;40.918;14.476;2022-09-09T13:02:45;32.97;;;7.67;;
59520;SDS011;54898;40.918;14.476;2022-09-09T13:05:13;32.35;;;7.68;;
59520;SDS011;54898;40.918;14.476;2022-09-09T13:07:40;30.92;;;8.00;;
59520;SDS011;54898;40.918;14.476;2022-09-09T13:10:10;40.20;;;7.88;;
59520;SDS011;54898;40.918;14.476;2022-09-09T13:12:38;32.92;;;7.18;;
59520;SDS011;54898;40.918;14.476;2022-09-09T13:15:05;32.10;;;7.57;;
59520;SDS011;54898;40.918;14.476;2022-09-09T13:17:36;33.50;;;7.60;;
59520;SDS011;54898;40.918;14.476;2022-09-09T13:20:03;35.50;;;7.80;;
59520;SDS011;54898;40.918;14.476;2022-09-09T13:22:33;34.58;;;8.23;;
59520;SDS011;54898;40.918;14.476;2022-09-09T13:25:01;37.42;;;7.22;;
59520;SDS011;54898;40.918;14.476;2022-09-09T13:27:29;30.35;;;7.18;;
59520;SDS011;54898;40.918;14.476;2022-09-09T13:29:58;31.48;;;6.93;;
59520;SDS011;54898;40.918;14.476;2022-09-09T13:32:25;37.13;;;7.55;;
59520;SDS011;54898;40.918;14.476;2022-09-09T13:34:53;36.30;;;7.53;;
59520;SDS011;54898;40.918;14.476;2022-09-09T13:37:22;31.23;;;7.18;;
59520;SDS011;54898;40.918;14.476;2022-09-09T13:39:50;30.83;;;6.82;;
59520;SDS011;54898;40.918;14.476;2022-09-09T13:42:21;33.22;;;7.53;;
59520;SDS011;54898;40.918;14.476;2022-09-09T13:44:51;27.65;;;6.18;;
59520;SDS011;54898;40.918;14.476;2022-09-09T13:47:19;26.33;;;6.65;;
59520;SDS011;54898;40.918;14.476;2022-09-09T13:49:46;29.20;;;7.13;;
59520;SDS011;54898;40.918;14.476;2022-09-09T13:52:13;32.22;;;6.93;;
59520;SDS011;54898;40.918;14.476;2022-09-09T13:54:40;29.58;;;6.93;;
59520;SDS011;54898;40.918;14.476;2022-09-09T13:57:14;28.92;;;6.88;;
59520;SDS011;54898;40.918;14.476;2022-09-09T13:59:41;30.80;;;7.00;;
59520;SDS011;54898;40.918;14.476;2022-09-09T14:02:07;24.35;;;6.13;;
59520;SDS011;54898;40.918;14.476;2022-09-09T14:04:35;27.10;;;6.43;;
59520;SDS011;54898;40.918;14.476;2022-09-09T14:07:01;31.98;;;6.43;;
59520;SDS011;54898;40.918;14.476;2022-09-09T14:09:27;29.63;;;6.40;;
59520;SDS011;54898;40.918;14.476;2022-09-09T14:11:54;24.08;;;5.47;;
59520;SDS011;54898;40.918;14.476;2022-09-09T14:14:21;30.60;;;5.78;;
59520;SDS011;54898;40.918;14.476;2022-09-09T14:16:47;32.00;;;6.95;;
59520;SDS011;54898;40.918;14.476;2022-09-09T14:19:13;22.23;;;5.57;;
59520;SDS011;54898;40.918;14.476;2022-09-09T14:21:41;28.40;;;6.47;;
59520;SDS011;54898;40.918;14.476;2022-09-09T14:24:07;24.77;;;6.25;;
59520;SDS011;54898;40.918;14.476;2022-09-09T14:26:33;22.40;;;5.68;;
59520;SDS011;54898;40.918;14.476;2022-09-09T14:28:59;27.70;;;6.35;;
59520;SDS011;54898;40.918;14.476;2022-09-09T14:31:27;24.77;;;6.25;;
59520;SDS011;54898;40.918;14.476;2022-09-09T14:33:53;27.10;;;5.53;;
59520;SDS011;54898;40.918;14.476;2022-09-09T14:36:19;19.55;;;6.05;;
59520;SDS011;54898;40.918;14.476;2022-09-09T14:38:47;21.25;;;5.90;;
59520;SDS011;54898;40.918;14.476;2022-09-09T14:41:14;20.33;;;5.90;;
59520;SDS011;54898;40.918;14.476;2022-09-09T14:43:44;21.55;;;6.13;;
59520;SDS011;54898;40.918;14.476;2022-09-09T14:46:10;23.27;;;5.85;;
59520;SDS011;54898;40.918;14.476;2022-09-09T14:48:37;22.27;;;5.47;;
59520;SDS011;54898;40.918;14.476;2022-09-09T14:51:05;22.10;;;5.70;;
59520;SDS011;54898;40.918;14.476;2022-09-09T14:56:07;20.63;;;5.78;;
59520;SDS011;54898;40.918;14.476;2022-09-09T14:58:34;16.58;;;4.50;;
59520;SDS011;54898;40.918;14.476;2022-09-09T15:01:04;19.38;;;5.20;;
59520;SDS011;54898;40.918;14.476;2022-09-09T15:03:31;19.35;;;4.90;;
59520;SDS011;54898;40.918;14.476;2022-09-09T15:05:57;20.40;;;5.60;;
59520;SDS011;54898;40.918;14.476;2022-09-09T15:10:58;19.42;;;4.47;;
59520;SDS011;54898;40.918;14.476;2022-09-09T15:13:26;19.08;;;5.00;;
59520;SDS011;54898;40.918;14.476;2022-09-09T15:15:52;20.50;;;4.60;;
59520;SDS011;54898;40.918;14.476;2022-09-09T15:18:20;16.70;;;4.45;;
59520;SDS011;54898;40.918;14.476;2022-09-09T15:20:46;18.90;;;4.60;;
59520;SDS011;54898;40.918;14.476;2022-09-09T15:23:13;18.88;;;4.30;;